createdAt,value
2022-09-27T00:00:59.847Z,99144.97
2022-09-27T00:03:27.931Z,99138.00
2022-09-27T00:06:05.381Z,99132.69
2022-09-27T00:08:33.779Z,99138.81
2022-09-27T00:11:02.708Z,99140.44
2022-09-27T00:13:30.545Z,99143.09
2022-09-27T00:15:59.594Z,99135.34
2022-09-27T00:18:27.889Z,99133.22
2022-09-27T00:20:55.624Z,99144.50
2022-09-27T00:23:24.676Z,99139.38
2022-09-27T00:25:58.719Z,99133.00
2022-09-27T00:28:27.278Z,99141.56
2022-09-27T00:30:55.294Z,99136.50
2022-09-27T00:33:22.901Z,99131.38
2022-09-27T00:35:50.561Z,99124.75
2022-09-27T00:38:18.490Z,99130.66
2022-09-27T00:40:48.636Z,99126.59
2022-09-27T00:43:20.307Z,99128.00
2022-09-27T00:45:51.207Z,99131.22
2022-09-27T00:48:23.717Z,99121.59
2022-09-27T00:50:54.129Z,99128.31
2022-09-27T00:53:28.001Z,99120.06
2022-09-27T00:56:00.374Z,99120.06
2022-09-27T00:58:32.166Z,99124.38
2022-09-27T01:01:03.499Z,99124.91
2022-09-27T01:03:40.050Z,99123.56
2022-09-27T01:06:10.019Z,99120.63
2022-09-27T01:08:37.597Z,99111.78
2022-09-27T01:11:15.531Z,99112.59
2022-09-27T01:13:53.023Z,99119.25
2022-09-27T01:16:31.108Z,99113.09
2022-09-27T01:19:12.049Z,99117.41
2022-09-27T01:21:45.949Z,99111.00
2022-09-27T01:24:37.326Z,99107.28
2022-09-27T01:27:29.886Z,99106.47
2022-09-27T01:30:25.087Z,99101.13
2022-09-27T01:32:59.419Z,99103.00
2022-09-27T01:35:35.418Z,99103.00
2022-09-27T01:38:14.933Z,99108.09
2022-09-27T01:40:52.211Z,99102.53
2022-09-27T01:43:25.321Z,99099.84
2022-09-27T01:45:59.917Z,99103.56
2022-09-27T01:48:34.874Z,99098.78
2022-09-27T01:51:08.270Z,99097.97
2022-09-27T01:53:39.285Z,99101.72
2022-09-27T01:56:13.865Z,99097.19
2022-09-27T01:58:47.012Z,99086.50
2022-09-27T02:01:18.911Z,99085.69
2022-09-27T02:03:50.158Z,99089.41
2022-09-27T02:06:22.449Z,99083.00
2022-09-27T02:08:55.785Z,99085.44
2022-09-27T02:11:23.704Z,99077.69
2022-09-27T02:13:55.517Z,99075.81
2022-09-27T02:16:33.923Z,99074.19
2022-09-27T02:19:10.969Z,99075.00
2022-09-27T02:21:43.796Z,99082.19
2022-09-27T02:24:15.227Z,99076.88
2022-09-27T02:26:46.618Z,99072.00
2022-09-27T02:29:19.660Z,99079.47
2022-09-27T02:31:48.675Z,99074.91
2022-09-27T02:34:20.858Z,99075.97
2022-09-27T02:36:49.205Z,99066.34
2022-09-27T02:39:19.161Z,99067.16
2022-09-27T02:41:47.179Z,99075.97
2022-09-27T02:44:17.529Z,99074.59
2022-09-27T02:47:09.805Z,99067.97
2022-09-27T02:49:51.000Z,99073.31
2022-09-27T02:52:31.199Z,99063.44
2022-09-27T02:55:09.171Z,99064.47
2022-09-27T02:57:48.718Z,99058.09
2022-09-27T03:00:20.438Z,99058.09
2022-09-27T03:02:59.518Z,99057.84
2022-09-27T03:05:30.155Z,99052.75
2022-09-27T03:07:57.923Z,99057.28
2022-09-27T03:10:27.787Z,99049.50
2022-09-27T03:12:56.743Z,99053.81
2022-09-27T03:15:24.312Z,99052.19
2022-09-27T03:17:53.285Z,99053.25
2022-09-27T03:20:20.860Z,99054.53
2022-09-27T03:22:48.471Z,99052.44
2022-09-27T03:25:16.279Z,99054.84
2022-09-27T03:27:44.569Z,99047.91
2022-09-27T03:30:15.043Z,99050.81
2022-09-27T03:32:44.180Z,99046.50
2022-09-27T03:35:13.725Z,99038.28
2022-09-27T03:37:41.424Z,99030.25
2022-09-27T03:40:10.318Z,99035.84
2022-09-27T03:42:38.861Z,99032.13
2022-09-27T03:45:07.172Z,99032.13
2022-09-27T03:47:34.848Z,99035.59
2022-09-27T03:50:02.446Z,99039.09
2022-09-27T03:52:31.379Z,99034.78
2022-09-27T03:55:02.155Z,99032.13
2022-09-27T03:57:30.764Z,99025.97
2022-09-27T03:59:59.870Z,99028.63
2022-09-27T04:02:27.942Z,99032.94
2022-09-27T04:04:55.586Z,99028.91
2022-09-27T04:07:23.549Z,99022.75
2022-09-27T04:09:52.502Z,99023.78
2022-09-27T04:12:20.139Z,99026.72
2022-09-27T04:14:47.701Z,99024.28
2022-09-27T04:17:15.292Z,99028.78
2022-09-27T04:19:42.877Z,99028.50
2022-09-27T04:22:10.819Z,99029.31
2022-09-27T04:24:38.450Z,99025.84
2022-09-27T04:27:07.932Z,99034.06
2022-09-27T04:29:35.521Z,99030.28
2022-09-27T04:32:03.131Z,99024.63
2022-09-27T04:34:48.425Z,99027.50
2022-09-27T04:37:15.993Z,99032.53
2022-09-27T04:39:43.559Z,99025.91
2022-09-27T04:42:12.514Z,99030.19
2022-09-27T04:44:40.446Z,99027.03
2022-09-27T04:49:40.506Z,99028.88
2022-09-27T04:52:08.090Z,99026.00
2022-09-27T04:54:35.686Z,99032.63
2022-09-27T04:57:03.266Z,99028.75
2022-09-27T04:59:32.207Z,99029.94
2022-09-27T05:02:00.610Z,99022.09
2022-09-27T05:04:28.651Z,99030.91
2022-09-27T05:06:57.320Z,99034.53
2022-09-27T05:09:25.152Z,99043.19
2022-09-27T05:11:52.754Z,99037.19
2022-09-27T05:14:20.625Z,99036.19
2022-09-27T05:16:49.665Z,99040.31
2022-09-27T05:19:17.358Z,99045.28
2022-09-27T05:21:45.049Z,99047.28
2022-09-27T05:24:12.618Z,99053.91
2022-09-27T05:26:40.194Z,99049.38
2022-09-27T05:29:07.760Z,99041.84
2022-09-27T05:31:35.374Z,99044.28
2022-09-27T05:34:04.357Z,99049.84
2022-09-27T05:36:32.429Z,99045.81
2022-09-27T05:38:59.985Z,99052.41
2022-09-27T05:41:27.690Z,99041.75
2022-09-27T05:43:55.914Z,99043.63
2022-09-27T05:46:23.530Z,99051.28
2022-09-27T05:48:51.246Z,99048.59
2022-09-27T05:51:21.026Z,99049.47
2022-09-27T05:53:48.774Z,99049.47
2022-09-27T05:56:17.066Z,99044.91
2022-09-27T05:58:44.703Z,99045.63
2022-09-27T06:01:12.340Z,99045.63
2022-09-27T06:03:41.102Z,99048.88
2022-09-27T06:06:10.582Z,99046.94
2022-09-27T06:08:40.092Z,99047.75
2022-09-27T06:11:10.038Z,99046.94
2022-09-27T06:13:37.863Z,99048.78
2022-09-27T06:16:06.201Z,99052.59
2022-09-27T06:18:33.995Z,99049.59
2022-09-27T06:21:02.298Z,99056.75
2022-09-27T06:23:32.615Z,99058.41
2022-09-27T06:26:04.847Z,99056.50
2022-09-27T06:28:33.037Z,99048.66
2022-09-27T06:31:01.510Z,99060.81
2022-09-27T06:33:29.514Z,99057.69
2022-09-27T06:35:57.233Z,99060.47
2022-09-27T06:38:25.916Z,99062.09
2022-09-27T06:40:53.560Z,99067.16
2022-09-27T06:43:22.715Z,99060.81
2022-09-27T06:45:50.427Z,99065.31
2022-09-27T06:48:18.485Z,99071.25
2022-09-27T06:50:47.787Z,99069.72
2022-09-27T06:53:16.537Z,99070.44
2022-09-27T06:55:45.406Z,99066.69
2022-09-27T06:58:30.966Z,99078.28
2022-09-27T07:00:59.993Z,99081.06
2022-09-27T07:03:35.339Z,99078.06
2022-09-27T07:06:06.231Z,99084.41
2022-09-27T07:08:35.730Z,99085.31
2022-09-27T07:11:05.840Z,99086.94
2022-09-27T07:13:34.482Z,99092.97
2022-09-27T07:16:03.917Z,99089.94
2022-09-27T07:18:31.535Z,99091.91
2022-09-27T07:21:00.964Z,99094.31
2022-09-27T07:23:29.017Z,99095.00
2022-09-27T07:25:56.606Z,99090.94
2022-09-27T07:28:24.374Z,99097.75
2022-09-27T07:30:56.534Z,99104.00
2022-09-27T07:33:25.553Z,99095.91
2022-09-27T07:35:53.154Z,99104.13
2022-09-27T07:38:20.767Z,99096.72
2022-09-27T07:40:48.488Z,99107.25
2022-09-27T07:43:16.214Z,99106.31
2022-09-27T07:45:43.797Z,99104.72
2022-09-27T07:48:14.682Z,99108.97
2022-09-27T07:50:43.901Z,99105.97
2022-09-27T07:53:13.221Z,99107.94
2022-09-27T07:55:42.291Z,99109.31
2022-09-27T07:58:11.565Z,99113.38
2022-09-27T08:00:40.703Z,99108.75
2022-09-27T08:03:09.569Z,99112.31
2022-09-27T08:05:37.575Z,99112.88
2022-09-27T08:08:06.543Z,99110.22
2022-09-27T08:10:35.454Z,99119.59
2022-09-27T08:13:04.061Z,99116.16
2022-09-27T08:15:32.626Z,99117.28
2022-09-27T08:18:00.606Z,99114.53
2022-09-27T08:20:28.206Z,99120.06
2022-09-27T08:22:56.077Z,99120.88
2022-09-27T08:25:25.039Z,99120.31
2022-09-27T08:27:57.327Z,99126.69
2022-09-27T08:30:25.254Z,99126.56
2022-09-27T08:32:56.295Z,99140.00
2022-09-27T08:35:24.193Z,99135.25
2022-09-27T08:37:56.495Z,99128.06
2022-09-27T08:40:32.634Z,99130.47
2022-09-27T08:43:07.287Z,99135.00
2022-09-27T08:45:43.046Z,99137.28
2022-09-27T08:48:11.386Z,99143.28
2022-09-27T08:50:43.378Z,99134.88
2022-09-27T08:53:20.618Z,99139.25
2022-09-27T08:55:52.217Z,99145.06
2022-09-27T08:58:25.107Z,99147.94
2022-09-27T09:00:55.795Z,99146.84
2022-09-27T09:03:26.706Z,99143.56
2022-09-27T09:06:08.694Z,99143.91
2022-09-27T09:08:47.458Z,99150.47
2022-09-27T09:11:53.634Z,99150.97
2022-09-27T09:14:39.675Z,99150.09
2022-09-27T09:17:21.401Z,99157.72
2022-09-27T09:20:04.040Z,99153.94
2022-09-27T09:22:45.486Z,99152.53
2022-09-27T09:25:24.658Z,99158.06
2022-09-27T09:28:05.456Z,99160.53
2022-09-27T09:30:41.917Z,99162.38
2022-09-27T09:33:19.398Z,99163.19
2022-09-27T09:35:54.789Z,99160.94
2022-09-27T09:38:27.395Z,99150.66
2022-09-27T09:40:59.620Z,99157.81
2022-09-27T09:43:34.881Z,99163.16
2022-09-27T09:46:06.565Z,99162.41
2022-09-27T09:48:44.275Z,99172.31
2022-09-27T09:51:18.894Z,99168.97
2022-09-27T09:53:52.571Z,99165.78
2022-09-27T09:56:25.625Z,99162.56
2022-09-27T09:58:57.747Z,99166.16
2022-09-27T10:01:29.541Z,99176.31
2022-09-27T10:03:57.611Z,99167.00
2022-09-27T10:06:27.525Z,99168.72
2022-09-27T10:08:55.768Z,99168.16
2022-09-27T10:11:26.860Z,99176.00
2022-09-27T10:13:56.557Z,99176.69
2022-09-27T10:16:28.775Z,99176.78
2022-09-27T10:19:01.143Z,99174.88
2022-09-27T10:21:31.319Z,99172.50
2022-09-27T10:24:13.528Z,99177.16
2022-09-27T10:26:46.938Z,99175.38
2022-09-27T10:29:24.141Z,99168.25
2022-09-27T10:31:53.487Z,99171.63
2022-09-27T10:34:31.781Z,99177.63
2022-09-27T10:37:17.177Z,99178.97
2022-09-27T10:39:46.451Z,99178.13
2022-09-27T10:42:32.606Z,99173.63
2022-09-27T10:45:23.606Z,99182.97
2022-09-27T10:47:51.482Z,99192.56
2022-09-27T10:50:49.871Z,99177.72
2022-09-27T10:53:15.959Z,99176.03
2022-09-27T10:55:47.970Z,99187.31
2022-09-27T10:58:20.898Z,99181.09
2022-09-27T11:00:58.061Z,99178.91
2022-09-27T11:03:28.878Z,99181.03
2022-09-27T11:05:56.925Z,99181.34
2022-09-27T11:08:30.233Z,99176.31
2022-09-27T11:11:17.396Z,99183.69
2022-09-27T11:13:59.881Z,99192.47
2022-09-27T11:16:42.972Z,99183.97
2022-09-27T11:19:22.293Z,99186.25
2022-09-27T11:21:56.641Z,99189.41
2022-09-27T11:24:41.236Z,99189.69
2022-09-27T11:27:20.272Z,99192.88
2022-09-27T11:30:02.790Z,99190.72
2022-09-27T11:32:46.100Z,99195.09
2022-09-27T11:35:32.464Z,99193.38
2022-09-27T11:38:12.609Z,99193.38
2022-09-27T11:41:00.369Z,99193.66
2022-09-27T11:43:41.870Z,99204.97
2022-09-27T11:46:29.210Z,99207.22
2022-09-27T11:49:31.093Z,99201.25
2022-09-27T11:52:12.420Z,99212.16
2022-09-27T11:54:58.449Z,99212.69
2022-09-27T11:57:32.012Z,99204.97
2022-09-27T12:00:07.414Z,99209.19
2022-09-27T12:03:05.858Z,99195.38
2022-09-27T12:05:42.166Z,99213.84
2022-09-27T12:08:22.975Z,99209.91
2022-09-27T12:10:59.487Z,99204.69
2022-09-27T12:13:34.257Z,99202.28
2022-09-27T12:16:03.730Z,99201.72
2022-09-27T12:18:37.991Z,99204.63
2022-09-27T12:21:09.963Z,99205.94
2022-09-27T12:23:42.771Z,99214.44
2022-09-27T12:26:14.710Z,99211.72
2022-09-27T12:28:49.438Z,99214.69
2022-09-27T12:31:30.047Z,99212.09
2022-09-27T12:34:09.473Z,99219.84
2022-09-27T12:36:45.387Z,99219.00
2022-09-27T12:39:21.239Z,99221.28
2022-09-27T12:41:56.410Z,99219.31
2022-09-27T12:44:24.339Z,99216.72
2022-09-27T12:47:05.829Z,99224.03
2022-09-27T12:49:45.277Z,99222.66
2022-09-27T12:52:23.370Z,99223.47
2022-09-27T12:55:16.189Z,99215.50
2022-09-27T12:57:52.678Z,99210.66
2022-09-27T13:00:23.735Z,99219.22
2022-09-27T13:03:27.448Z,99220.06
2022-09-27T13:06:21.527Z,99218.34
2022-09-27T13:09:08.323Z,99215.00
2022-09-27T13:11:48.892Z,99220.72
2022-09-27T13:14:21.294Z,99226.91
2022-09-27T13:16:51.307Z,99226.88
2022-09-27T13:19:43.152Z,99223.06
2022-09-27T13:22:35.002Z,99232.59
2022-09-27T13:25:16.597Z,99237.72
2022-09-27T13:27:44.146Z,99232.56
2022-09-27T13:30:50.557Z,99237.06
2022-09-27T13:33:46.550Z,99240.22
2022-09-27T13:36:32.819Z,99237.31
2022-09-27T13:39:19.813Z,99240.22
2022-09-27T13:42:08.328Z,99242.22
2022-09-27T13:44:44.340Z,99247.53
2022-09-27T13:47:27.513Z,99241.84
2022-09-27T13:50:00.502Z,99249.63
2022-09-27T13:52:34.647Z,99251.97
2022-09-27T13:55:03.949Z,99252.69
2022-09-27T13:57:50.849Z,99259.34
2022-09-27T14:00:21.541Z,99263.81
2022-09-27T14:03:05.150Z,99262.13
2022-09-27T14:05:38.883Z,99260.34
2022-09-27T14:08:15.245Z,99252.97
2022-09-27T14:10:44.553Z,99250.84
2022-09-27T14:13:20.018Z,99258.06
2022-09-27T14:15:48.449Z,99263.31
2022-09-27T14:18:16.121Z,99260.22
2022-09-27T14:20:46.254Z,99262.13
2022-09-27T14:23:18.955Z,99262.63
2022-09-27T14:25:47.915Z,99275.75
2022-09-27T14:28:25.357Z,99275.16
2022-09-27T14:31:14.693Z,99280.00
2022-09-27T14:33:42.308Z,99282.56
2022-09-27T14:36:41.583Z,99281.78
2022-09-27T14:39:15.179Z,99295.75
2022-09-27T14:41:42.805Z,99295.38
2022-09-27T14:44:16.570Z,99299.13
2022-09-27T14:46:44.265Z,99295.75
2022-09-27T14:49:23.085Z,99295.25
2022-09-27T14:51:54.271Z,99295.31
2022-09-27T14:54:25.193Z,99292.59
2022-09-27T14:56:54.555Z,99296.13
2022-09-27T14:59:30.833Z,99298.75
2022-09-27T15:02:01.700Z,99301.25
2022-09-27T15:04:32.632Z,99309.97
2022-09-27T15:07:01.777Z,99296.31
2022-09-27T15:09:33.143Z,99299.25
2022-09-27T15:12:05.104Z,99305.97
2022-09-27T15:14:37.485Z,99302.84
2022-09-27T15:17:06.273Z,99304.59
2022-09-27T15:19:34.422Z,99293.13
2022-09-27T15:22:23.346Z,99307.75
2022-09-27T15:24:50.962Z,99307.72
2022-09-27T15:27:21.529Z,99300.34
2022-09-27T15:29:52.366Z,99301.06
2022-09-27T15:32:23.078Z,99300.97
2022-09-27T15:34:50.886Z,99301.56
2022-09-27T15:37:28.253Z,99299.19
2022-09-27T15:39:55.785Z,99301.38
2022-09-27T15:42:23.736Z,99310.22
2022-09-27T15:44:54.160Z,99316.47
2022-09-27T15:47:41.190Z,99312.75
2022-09-27T15:50:34.738Z,99324.44
2022-09-27T15:53:05.493Z,99324.09
2022-09-27T15:55:35.352Z,99336.13
2022-09-27T15:58:06.342Z,99317.25
2022-09-27T16:00:36.899Z,99322.50
2022-09-27T16:03:04.494Z,99324.84
2022-09-27T16:05:33.145Z,99328.28
2022-09-27T16:08:01.094Z,99329.81
2022-09-27T16:10:36.322Z,99332.47
2022-09-27T16:13:03.870Z,99337.84
2022-09-27T16:15:31.784Z,99336.03
2022-09-27T16:18:01.000Z,99336.69
2022-09-27T16:20:29.173Z,99350.16
2022-09-27T16:22:57.598Z,99336.28
2022-09-27T16:25:25.367Z,99338.47
2022-09-27T16:27:53.629Z,99347.56
2022-09-27T16:30:23.246Z,99349.44
2022-09-27T16:32:50.873Z,99349.66
2022-09-27T16:35:22.593Z,99340.50
2022-09-27T16:37:50.359Z,99351.13
2022-09-27T16:40:19.004Z,99351.53
2022-09-27T16:42:49.138Z,99344.75
2022-09-27T16:45:19.412Z,99363.59
2022-09-27T16:47:47.469Z,99357.59
2022-09-27T16:50:33.315Z,99361.72
2022-09-27T16:53:02.241Z,99360.47
2022-09-27T16:55:30.262Z,99362.75
2022-09-27T16:57:59.575Z,99366.28
2022-09-27T17:00:28.317Z,99364.47
2022-09-27T17:02:55.905Z,99365.31
2022-09-27T17:05:23.743Z,99367.19
2022-09-27T17:07:52.331Z,99369.88
2022-09-27T17:10:21.582Z,99379.78
2022-09-27T17:12:49.662Z,99380.59
2022-09-27T17:15:17.782Z,99377.72
2022-09-27T17:17:49.225Z,99370.31
2022-09-27T17:20:16.818Z,99380.53
2022-09-27T17:22:44.501Z,99374.72
2022-09-27T17:25:12.130Z,99386.53
2022-09-27T17:27:41.031Z,99383.97
2022-09-27T17:30:09.562Z,99383.06
2022-09-27T17:32:38.657Z,99386.41
2022-09-27T17:35:09.134Z,99379.09
2022-09-27T17:37:36.778Z,99381.19
2022-09-27T17:40:05.006Z,99382.22
2022-09-27T17:42:33.590Z,99390.47
2022-09-27T17:45:02.512Z,99391.72
2022-09-27T17:47:47.498Z,99382.94
2022-09-27T17:50:28.539Z,99390.69
2022-09-27T17:52:58.008Z,99388.84
2022-09-27T17:55:26.920Z,99390.47
2022-09-27T17:57:54.457Z,99392.06
2022-09-27T18:00:23.349Z,99393.72
2022-09-27T18:02:51.101Z,99392.91
2022-09-27T18:05:21.089Z,99393.47
2022-09-27T18:07:48.711Z,99396.13
2022-09-27T18:10:17.798Z,99397.78
2022-09-27T18:12:45.440Z,99393.00
2022-09-27T18:15:13.086Z,99405.31
2022-09-27T18:17:43.327Z,99402.88
2022-09-27T18:20:11.296Z,99405.75
2022-09-27T18:22:38.850Z,99406.47
2022-09-27T18:25:07.614Z,99408.78
2022-09-27T18:27:35.534Z,99411.91
2022-09-27T18:30:03.353Z,99412.00
2022-09-27T18:32:30.915Z,99419.88
2022-09-27T18:34:59.766Z,99413.34
2022-09-27T18:37:27.333Z,99416.09
2022-09-27T18:39:55.580Z,99418.41
2022-09-27T18:42:23.128Z,99413.97
2022-09-27T18:44:50.908Z,99420.81
2022-09-27T18:47:18.634Z,99419.63
2022-09-27T18:49:46.191Z,99430.75
2022-09-27T18:52:15.089Z,99430.59
2022-09-27T18:54:43.558Z,99424.88
2022-09-27T18:57:11.083Z,99422.69
2022-09-27T18:59:38.618Z,99438.28
2022-09-27T19:02:06.205Z,99439.56
2022-09-27T19:04:34.025Z,99439.19
2022-09-27T19:07:01.824Z,99439.03
2022-09-27T19:09:31.261Z,99440.50
2022-09-27T19:11:58.819Z,99431.13
2022-09-27T19:14:26.838Z,99440.59
2022-09-27T19:16:54.471Z,99443.13
2022-09-27T19:19:22.124Z,99447.84
2022-09-27T19:21:49.961Z,99454.66
2022-09-27T19:24:18.771Z,99455.09
2022-09-27T19:26:47.681Z,99454.50
2022-09-27T19:29:15.345Z,99459.47
2022-09-27T19:31:43.298Z,99468.69
2022-09-27T19:34:11.786Z,99456.84
2022-09-27T19:36:39.394Z,99460.41
2022-09-27T19:39:07.902Z,99465.56
2022-09-27T19:41:35.429Z,99467.28
2022-09-27T19:44:04.399Z,99466.31
2022-09-27T19:46:32.025Z,99466.13
2022-09-27T19:49:01.272Z,99469.22
2022-09-27T19:51:30.881Z,99472.56
2022-09-27T19:53:58.426Z,99469.75
2022-09-27T19:56:26.079Z,99471.78
2022-09-27T19:58:53.642Z,99476.72
2022-09-27T20:01:24.202Z,99474.28
2022-09-27T20:03:55.175Z,99474.72
2022-09-27T20:06:22.894Z,99472.25
2022-09-27T20:08:50.971Z,99471.91
2022-09-27T20:11:20.153Z,99471.53
2022-09-27T20:13:47.985Z,99471.13
2022-09-27T20:16:17.962Z,99468.09
2022-09-27T20:18:48.268Z,99468.31
2022-09-27T20:21:17.483Z,99476.94
2022-09-27T20:23:45.316Z,99461.63
2022-09-27T20:26:14.985Z,99469.22
2022-09-27T20:28:43.987Z,99467.81
2022-09-27T20:31:13.007Z,99466.59
2022-09-27T20:33:43.857Z,99464.38
2022-09-27T20:36:14.782Z,99469.53
2022-09-27T20:38:43.289Z,99456.88
2022-09-27T20:41:11.845Z,99455.69
2022-09-27T20:43:39.843Z,99455.50
2022-09-27T20:46:08.794Z,99456.16
2022-09-27T20:48:37.489Z,99453.09
2022-09-27T20:51:05.797Z,99460.09
2022-09-27T20:53:36.037Z,99457.22
2022-09-27T20:56:03.734Z,99457.25
2022-09-27T20:58:33.031Z,99452.78
2022-09-27T21:01:06.576Z,99465.06
2022-09-27T21:03:34.363Z,99460.59
2022-09-27T21:06:02.254Z,99462.28
2022-09-27T21:08:30.958Z,99466.56
2022-09-27T21:11:07.245Z,99468.22
2022-09-27T21:13:35.349Z,99458.25
2022-09-27T21:16:04.779Z,99454.38
2022-09-27T21:18:32.489Z,99450.72
2022-09-27T21:21:01.232Z,99459.09
2022-09-27T21:23:29.899Z,99456.25
2022-09-27T21:26:06.781Z,99461.56
2022-09-27T21:28:35.825Z,99463.81
2022-09-27T21:31:05.508Z,99472.19
2022-09-27T21:33:33.244Z,99464.41
2022-09-27T21:36:01.693Z,99474.66
2022-09-27T21:38:30.824Z,99473.19
2022-09-27T21:40:59.438Z,99466.69
2022-09-27T21:43:30.150Z,99451.41
2022-09-27T21:46:02.465Z,99467.53
2022-09-27T21:48:30.955Z,99465.06
2022-09-27T21:51:09.537Z,99462.63
2022-09-27T21:53:38.739Z,99471.81
2022-09-27T21:56:07.663Z,99471.19
2022-09-27T21:58:38.114Z,99468.94
2022-09-27T22:01:10.239Z,99457.56
2022-09-27T22:03:38.729Z,99471.00
2022-09-27T22:06:09.020Z,99471.22
2022-09-27T22:08:36.573Z,99474.06
